Time;durP1;ratioP1;P1;durP2;ratioP2;P2;SDS_P1;SDS_P2;PMS_P1;PMS_P2;Temp;Humidity;BMP_temperature;BMP_pressure;BME280_temperature;BME280_humidity;BME280_pressure;Samples;Min_cycle;Max_cycle;Signal;HPM_P1;HPM_P2
2023/06/26 00:00:28;;;;;;;;;;;;;;;20.75;49.85;98214.13;7374585;19;19936;-71
2023/06/26 00:02:55;;;;;;;;;;;;;;;20.76;49.05;98220.31;7375427;19;19923;-71
2023/06/26 00:05:22;;;;;;;;;;;;;;;20.73;49.50;98218.88;7372103;19;19947;-71
2023/06/26 00:07:48;;;;;;;;;;;;;;;20.71;49.64;98228.22;7370424;19;19934;-71
2023/06/26 00:10:15;;;;;;;;;;;;;;;20.74;50.09;98225.91;7370208;19;19915;-72
2023/06/26 00:12:42;;;;;;;;;;;;;;;20.77;48.15;98213.88;7371448;19;19933;-70
2023/06/26 00:15:08;;;;;;;;;;;;;;;20.79;47.71;98219.84;7373280;19;19923;-71
2023/06/26 00:17:37;;;;;;;;;;;;;;;20.73;49.93;98228.81;7370507;19;19922;-72
2023/06/26 00:20:05;;;;;;;;;;;;;;;20.66;50.22;98225.38;7374644;19;20010;-70
2023/06/26 00:22:40;;;;;;;;;;;;;;;20.58;50.46;98221.94;7372779;19;20432;-71
2023/06/26 00:25:07;;;;;;;;;;;;;;;20.60;50.56;98227.09;7369003;19;19922;-72
2023/06/26 00:27:34;;;;;;;;;;;;;;;20.53;50.36;98224.44;7369926;19;19921;-72
2023/06/26 00:30:01;;;;;;;;;;;;;;;20.47;49.74;98224.53;7374378;19;19919;-71
2023/06/26 00:32:27;;;;;;;;;;;;;;;20.38;49.77;98229.38;7360860;19;19918;-71
2023/06/26 00:34:54;;;;;;;;;;;;;;;20.27;51.09;98225.53;7371181;19;19930;-72
2023/06/26 00:37:21;;;;;;;;;;;;;;;20.27;50.65;98230.91;7374660;19;19919;-71
2023/06/26 00:39:48;;;;;;;;;;;;;;;20.20;51.12;98227.50;7371508;19;19919;-71
2023/06/26 00:42:15;;;;;;;;;;;;;;;20.11;50.97;98220.75;7369924;19;19927;-71
2023/06/26 00:44:43;;;;;;;;;;;;;;;20.15;52.00;98220.09;7370262;19;19987;-71
2023/06/26 00:47:11;;;;;;;;;;;;;;;20.23;52.18;98216.31;7374140;19;19986;-72
2023/06/26 00:49:38;;;;;;;;;;;;;;;20.29;51.67;98215.41;7367618;19;20284;-71
2023/06/26 00:52:04;;;;;;;;;;;;;;;20.31;51.31;98218.69;7370430;19;19929;-71
2023/06/26 00:54:31;;;;;;;;;;;;;;;20.37;51.41;98217.78;7368032;19;19920;-71
2023/06/26 00:56:58;;;;;;;;;;;;;;;20.39;50.91;98217.59;7373040;19;19922;-72
2023/06/26 00:59:25;;;;;;;;;;;;;;;20.37;50.16;98208.91;7365792;19;19926;-72
2023/06/26 01:01:54;;;;;;;;;;;;;;;20.33;50.51;98211.25;7374121;19;19923;-72
2023/06/26 01:04:20;;;;;;;;;;;;;;;20.37;51.69;98216.97;7373452;19;19955;-72
2023/06/26 01:06:48;;;;;;;;;;;;;;;20.28;50.19;98215.63;7373016;19;20014;-72
2023/06/26 01:09:16;;;;;;;;;;;;;;;20.15;50.05;98211.22;7370120;19;20727;-72
2023/06/26 01:11:43;;;;;;;;;;;;;;;20.22;50.41;98214.66;7364937;19;19928;-72
2023/06/26 01:14:10;;;;;;;;;;;;;;;20.14;50.66;98212.25;7369837;19;19978;-71
2023/06/26 01:16:37;;;;;;;;;;;;;;;20.14;50.92;98207.72;7365214;19;20284;-72
2023/06/26 01:19:08;;;;;;;;;;;;;;;20.15;50.46;98209.34;7373832;19;19930;-72
2023/06/26 01:21:35;;;;;;;;;;;;;;;20.14;52.39;98206.88;7374443;19;20105;-72
2023/06/26 01:24:06;;;;;;;;;;;;;;;20.13;52.30;98203.38;7370954;19;19915;-72
2023/06/26 01:26:35;;;;;;;;;;;;;;;20.04;52.01;98212.75;7370081;19;19918;-71
2023/06/26 01:29:02;;;;;;;;;;;;;;;20.16;51.60;98204.78;7372313;19;19922;-71
2023/06/26 01:31:30;;;;;;;;;;;;;;;20.14;50.42;98196.13;7365035;19;19926;-71
2023/06/26 01:34:00;;;;;;;;;;;;;;;20.03;50.63;98202.22;7370731;19;19923;-72
2023/06/26 01:36:27;;;;;;;;;;;;;;;19.95;52.71;98192.59;7368621;19;19921;-71
2023/06/26 01:38:53;;;;;;;;;;;;;;;19.93;52.87;98194.66;7372341;19;19921;-71
2023/06/26 01:41:23;;;;;;;;;;;;;;;20.03;51.94;98197.69;7374497;19;19934;-71
2023/06/26 01:43:49;;;;;;;;;;;;;;;19.84;51.29;98191.44;7369448;19;20905;-71
2023/06/26 01:46:27;;;;;;;;;;;;;;;19.84;52.35;98190.63;7367509;19;19998;-71
2023/06/26 01:49:09;;;;;;;;;;;;;;;19.77;53.25;98195.22;7371657;19;19929;-71
2023/06/26 01:51:38;;;;;;;;;;;;;;;19.60;52.41;98187.69;7365204;19;19943;-71
2023/06/26 01:54:05;;;;;;;;;;;;;;;19.50;53.06;98196.22;7367487;19;19923;-71
2023/06/26 01:56:34;;;;;;;;;;;;;;;19.52;52.37;98191.47;7366245;19;19923;-71
2023/06/26 01:59:00;;;;;;;;;;;;;;;19.51;53.45;98194.38;7373514;19;20543;-71
2023/06/26 02:01:27;;;;;;;;;;;;;;;19.20;53.47;98201.38;7371364;19;19998;-70
2023/06/26 02:03:54;;;;;;;;;;;;;;;19.34;53.50;98191.38;7371066;19;19922;-70
2023/06/26 02:06:22;;;;;;;;;;;;;;;19.43;53.83;98189.25;7367868;19;19934;-70
2023/06/26 02:08:50;;;;;;;;;;;;;;;19.42;53.80;98183.06;7341395;19;19918;-71
2023/06/26 02:11:17;;;;;;;;;;;;;;;19.51;53.62;98194.38;7356836;19;19929;-71
2023/06/26 02:13:43;;;;;;;;;;;;;;;19.44;53.21;98193.59;7366816;19;19922;-71
2023/06/26 02:16:10;;;;;;;;;;;;;;;19.58;52.20;98197.81;7366878;19;20590;-71
2023/06/26 02:18:37;;;;;;;;;;;;;;;19.47;53.98;98195.84;7365078;19;20754;-70
2023/06/26 02:21:03;;;;;;;;;;;;;;;19.49;53.73;98197.28;7369732;19;19918;-71
2023/06/26 02:23:30;;;;;;;;;;;;;;;19.52;53.83;98193.34;7361484;19;19925;-71
2023/06/26 02:25:57;;;;;;;;;;;;;;;19.39;53.25;98182.69;7367311;19;19951;-70
2023/06/26 02:28:24;;;;;;;;;;;;;;;19.37;53.56;98195.50;7371224;19;19925;-71
2023/06/26 02:30:50;;;;;;;;;;;;;;;19.32;54.58;98188.09;7365105;19;19918;-71
2023/06/26 02:33:17;;;;;;;;;;;;;;;19.36;55.86;98196.53;7371486;19;20325;-71
2023/06/26 02:35:47;;;;;;;;;;;;;;;19.36;55.60;98200.03;7363343;19;19953;-71
2023/06/26 02:38:14;;;;;;;;;;;;;;;19.36;55.74;98186.63;7370795;19;19954;-70
2023/06/26 02:40:40;;;;;;;;;;;;;;;19.38;55.75;98187.25;7360830;19;20285;-71
2023/06/26 02:43:08;;;;;;;;;;;;;;;19.45;55.40;98187.19;7364017;19;19953;-71
2023/06/26 02:45:34;;;;;;;;;;;;;;;19.43;55.39;98186.56;7360813;19;19929;-71
2023/06/26 02:48:01;;;;;;;;;;;;;;;19.46;54.92;98189.66;7372561;19;19926;-70
2023/06/26 02:50:30;;;;;;;;;;;;;;;19.50;55.16;98190.03;7364873;19;19923;-71
2023/06/26 02:53:06;;;;;;;;;;;;;;;19.50;54.67;98190.84;7363204;19;19921;-70
2023/06/26 02:55:34;;;;;;;;;;;;;;;19.57;53.57;98182.78;7360461;19;20349;-70
2023/06/26 02:58:01;;;;;;;;;;;;;;;19.61;53.79;98185.81;7366555;19;19939;-71
2023/06/26 03:00:29;;;;;;;;;;;;;;;19.65;53.03;98185.19;7364820;19;20341;-70
2023/06/26 03:02:59;;;;;;;;;;;;;;;19.71;53.16;98184.31;7369408;19;19983;-70
2023/06/26 03:05:26;;;;;;;;;;;;;;;19.74;52.86;98183.06;7367440;19;19947;-70
2023/06/26 03:07:53;;;;;;;;;;;;;;;19.73;51.87;98179.56;7366594;19;20018;-70
2023/06/26 03:10:20;;;;;;;;;;;;;;;19.64;52.25;98180.84;7362789;19;19927;-69
2023/06/26 03:12:48;;;;;;;;;;;;;;;19.42;52.97;98184.94;7361083;19;19919;-69
2023/06/26 03:15:16;;;;;;;;;;;;;;;19.35;53.10;98189.50;7365531;19;19914;-70
2023/06/26 03:17:43;;;;;;;;;;;;;;;19.25;53.43;98188.16;7363333;19;19923;-70
2023/06/26 03:20:15;;;;;;;;;;;;;;;19.07;54.50;98186.19;7368009;19;19922;-70
2023/06/26 03:22:47;;;;;;;;;;;;;;;19.00;55.02;98185.38;7364121;19;19931;-70
2023/06/26 03:25:16;;;;;;;;;;;;;;;18.73;55.83;98189.22;7367614;19;19943;-70
2023/06/26 03:27:43;;;;;;;;;;;;;;;18.97;55.56;98183.16;7371611;19;19936;-70
2023/06/26 03:30:10;;;;;;;;;;;;;;;19.01;54.57;98187.06;7371536;19;19994;-70
2023/06/26 03:32:39;;;;;;;;;;;;;;;18.72;55.70;98188.41;7366140;19;19984;-70
2023/06/26 03:35:06;;;;;;;;;;;;;;;18.98;54.85;98192.00;7371856;19;20012;-70
2023/06/26 03:37:33;;;;;;;;;;;;;;;18.85;55.09;98192.88;7370958;19;19927;-70
2023/06/26 03:40:00;;;;;;;;;;;;;;;18.90;55.25;98194.94;7375197;19;19990;-70
2023/06/26 03:42:27;;;;;;;;;;;;;;;18.86;56.14;98195.38;7375077;19;19923;-70
2023/06/26 03:44:53;;;;;;;;;;;;;;;18.93;54.92;98198.03;7372166;19;19939;-70
2023/06/26 03:47:20;;;;;;;;;;;;;;;18.86;55.70;98191.88;7374926;19;19922;-70
2023/06/26 03:49:47;;;;;;;;;;;;;;;18.99;55.49;98190.97;7367627;19;19915;-70
2023/06/26 03:52:14;;;;;;;;;;;;;;;18.90;56.34;98201.09;7375336;19;19922;-70
2023/06/26 03:54:41;;;;;;;;;;;;;;;19.01;54.68;98203.13;7368978;19;19922;-70
2023/06/26 03:57:09;;;;;;;;;;;;;;;18.97;55.65;98198.41;7371617;19;19929;-70
2023/06/26 03:59:36;;;;;;;;;;;;;;;19.19;54.85;98199.72;7373082;19;19923;-70
2023/06/26 04:02:03;;;;;;;;;;;;;;;19.02;55.35;98207.44;7375596;19;19994;-70
2023/06/26 04:04:30;;;;;;;;;;;;;;;19.25;55.32;98204.25;7373126;19;19926;-70
2023/06/26 04:06:59;;;;;;;;;;;;;;;19.18;56.09;98195.41;7367255;19;19918;-70
2023/06/26 04:09:26;;;;;;;;;;;;;;;19.25;55.97;98201.56;7371035;19;19926;-70
2023/06/26 04:11:53;;;;;;;;;;;;;;;19.47;54.87;98201.22;7372419;19;20885;-70
2023/06/26 04:14:19;;;;;;;;;;;;;;;19.53;53.95;98205.69;7376790;19;19922;-70
2023/06/26 04:16:46;;;;;;;;;;;;;;;19.59;53.34;98204.84;7368819;19;19933;-70
2023/06/26 04:19:13;;;;;;;;;;;;;;;19.60;53.92;98211.84;7376641;19;19957;-70
2023/06/26 04:21:41;;;;;;;;;;;;;;;19.66;54.65;98211.00;7369639;19;19919;-69
2023/06/26 04:24:07;;;;;;;;;;;;;;;19.77;54.84;98208.66;7369039;19;19930;-69
2023/06/26 04:26:34;;;;;;;;;;;;;;;19.91;52.57;98199.47;7368944;19;19926;-70
2023/06/26 04:29:01;;;;;;;;;;;;;;;19.99;53.89;98206.41;7376217;19;19922;-69
2023/06/26 04:31:28;;;;;;;;;;;;;;;20.12;53.25;98199.06;7373113;19;19958;-70
2023/06/26 04:33:55;;;;;;;;;;;;;;;20.22;53.88;98203.94;7372642;19;19925;-69
2023/06/26 04:36:21;;;;;;;;;;;;;;;20.36;52.86;98215.34;7369191;19;19934;-70
2023/06/26 04:38:49;;;;;;;;;;;;;;;20.45;53.00;98205.13;7366624;19;19967;-70
2023/06/26 04:41:16;;;;;;;;;;;;;;;20.60;51.34;98206.41;7371046;19;19922;-70
2023/06/26 04:43:42;;;;;;;;;;;;;;;20.68;52.24;98199.13;7371847;19;19922;-70
2023/06/26 04:46:09;;;;;;;;;;;;;;;20.82;53.10;98197.88;7371620;19;20290;-70
2023/06/26 04:48:36;;;;;;;;;;;;;;;20.90;53.13;98197.56;7369972;19;20038;-70
2023/06/26 04:51:03;;;;;;;;;;;;;;;21.00;52.08;98195.16;7376412;19;20636;-70
2023/06/26 04:53:30;;;;;;;;;;;;;;;21.05;52.29;98195.31;7365384;19;19919;-71
2023/06/26 04:55:56;;;;;;;;;;;;;;;21.08;53.31;98198.59;7361982;19;19945;-70
2023/06/26 04:58:23;;;;;;;;;;;;;;;21.23;51.79;98196.31;7372913;19;19959;-70
2023/06/26 05:00:50;;;;;;;;;;;;;;;21.33;51.60;98199.28;7364705;19;20352;-70
2023/06/26 05:03:16;;;;;;;;;;;;;;;21.36;51.30;98198.81;7375336;19;19943;-71
2023/06/26 05:05:44;;;;;;;;;;;;;;;21.44;51.74;98190.44;7360866;19;19923;-70
2023/06/26 05:08:17;;;;;;;;;;;;;;;21.48;52.18;98194.34;7372125;19;19922;-70
2023/06/26 05:10:44;;;;;;;;;;;;;;;21.53;51.35;98192.81;7377491;19;20597;-70
2023/06/26 05:13:11;;;;;;;;;;;;;;;21.61;51.78;98187.09;7377752;19;19925;-70
2023/06/26 05:15:38;;;;;;;;;;;;;;;21.75;50.11;98188.53;7364596;19;19982;-70
2023/06/26 05:18:06;;;;;;;;;;;;;;;21.80;49.74;98194.03;7364191;19;19927;-70
2023/06/26 05:20:32;;;;;;;;;;;;;;;21.88;51.45;98195.53;7366936;19;19915;-70
2023/06/26 05:22:59;;;;;;;;;;;;;;;21.99;50.44;98197.44;7370612;19;19922;-70
2023/06/26 05:25:26;;;;;;;;;;;;;;;22.05;49.28;98195.69;7365019;19;20372;-70
2023/06/26 05:27:53;;;;;;;;;;;;;;;22.09;49.71;98199.53;7364416;19;19937;-70
2023/06/26 05:30:20;;;;;;;;;;;;;;;22.14;49.92;98200.50;7368403;19;19930;-70
2023/06/26 05:32:47;;;;;;;;;;;;;;;22.23;50.34;98208.25;7365972;19;19943;-70
2023/06/26 05:35:14;;;;;;;;;;;;;;;22.32;50.05;98196.88;7362712;19;19935;-70
2023/06/26 05:37:41;;;;;;;;;;;;;;;22.40;50.25;98198.38;7359356;19;19933;-70
2023/06/26 05:40:08;;;;;;;;;;;;;;;22.50;50.08;98204.00;7366772;19;20803;-70
2023/06/26 05:42:35;;;;;;;;;;;;;;;22.64;48.45;98206.44;7365314;19;19915;-70
2023/06/26 05:45:02;;;;;;;;;;;;;;;22.73;49.05;98205.84;7369382;19;19911;-70
2023/06/26 05:47:28;;;;;;;;;;;;;;;22.82;49.02;98205.47;7374735;19;19922;-70
2023/06/26 05:49:55;;;;;;;;;;;;;;;22.96;48.20;98204.09;7371085;19;19919;-70
2023/06/26 05:52:22;;;;;;;;;;;;;;;23.05;47.97;98207.28;7371628;19;19923;-71
2023/06/26 05:54:49;;;;;;;;;;;;;;;23.14;47.54;98208.53;7361923;19;19919;-71
2023/06/26 05:57:16;;;;;;;;;;;;;;;23.25;48.13;98212.25;7369317;19;19921;-70
2023/06/26 05:59:43;;;;;;;;;;;;;;;23.37;48.67;98208.44;7365866;19;19930;-70
2023/06/26 06:02:10;;;;;;;;;;;;;;;23.50;48.42;98214.59;7369001;19;20360;-70
2023/06/26 06:04:37;;;;;;;;;;;;;;;23.61;48.21;98203.72;7361841;19;20735;-70
2023/06/26 06:07:04;;;;;;;;;;;;;;;23.62;46.72;98199.16;7371335;19;19975;-70
2023/06/26 06:09:31;;;;;;;;;;;;;;;23.74;47.42;98207.19;7368611;19;19915;-70
2023/06/26 06:11:58;;;;;;;;;;;;;;;23.87;45.52;98205.00;7367414;19;19926;-70
2023/06/26 06:14:25;;;;;;;;;;;;;;;23.90;46.98;98206.38;7368151;19;20184;-69
2023/06/26 06:16:51;;;;;;;;;;;;;;;24.06;46.25;98192.03;7364984;19;19922;-70
2023/06/26 06:19:18;;;;;;;;;;;;;;;24.15;46.17;98195.16;7372239;19;20704;-70
2023/06/26 06:21:45;;;;;;;;;;;;;;;24.21;47.15;98196.84;7364674;19;20629;-70
2023/06/26 06:24:11;;;;;;;;;;;;;;;24.44;46.21;98198.56;7373822;19;20009;-70
2023/06/26 06:26:38;;;;;;;;;;;;;;;24.53;46.02;98194.34;7366068;19;19914;-70
2023/06/26 06:29:05;;;;;;;;;;;;;;;24.69;45.27;98198.06;7374471;19;19915;-70
2023/06/26 06:31:32;;;;;;;;;;;;;;;24.78;44.52;98198.47;7369506;19;19919;-70
2023/06/26 06:33:59;;;;;;;;;;;;;;;24.93;46.36;98205.94;7367281;19;19915;-70
2023/06/26 06:36:25;;;;;;;;;;;;;;;25.00;44.11;98208.47;7372286;19;19946;-70
2023/06/26 06:38:52;;;;;;;;;;;;;;;25.07;44.82;98204.47;7358889;19;19926;-70
2023/06/26 06:41:19;;;;;;;;;;;;;;;25.19;44.41;98202.47;7367855;19;19934;-70
2023/06/26 06:43:47;;;;;;;;;;;;;;;25.32;44.46;98203.94;7361913;19;19922;-70
2023/06/26 06:46:13;;;;;;;;;;;;;;;25.35;45.15;98203.44;7366256;19;19926;-70
2023/06/26 06:48:40;;;;;;;;;;;;;;;25.40;44.13;98202.69;7361734;19;19934;-71
2023/06/26 06:51:07;;;;;;;;;;;;;;;25.42;43.33;98205.94;7366504;19;20389;-70
2023/06/26 06:53:35;;;;;;;;;;;;;;;25.44;46.23;98208.41;7370831;19;19946;-70
2023/06/26 06:56:02;;;;;;;;;;;;;;;25.52;44.37;98206.06;7363794;19;19919;-70
2023/06/26 06:58:28;;;;;;;;;;;;;;;25.54;44.08;98214.75;7363028;19;19926;-71
2023/06/26 07:00:55;;;;;;;;;;;;;;;25.63;42.46;98212.38;7363734;19;19928;-70
2023/06/26 07:03:22;;;;;;;;;;;;;;;25.75;43.97;98207.63;7373951;19;20408;-71
2023/06/26 07:05:49;;;;;;;;;;;;;;;25.87;44.08;98212.06;7367016;19;19939;-70
2023/06/26 07:08:16;;;;;;;;;;;;;;;25.81;44.36;98209.28;7375381;19;19927;-70
2023/06/26 07:10:43;;;;;;;;;;;;;;;26.02;42.47;98209.47;7372321;19;22432;-69
2023/06/26 07:13:11;;;;;;;;;;;;;;;26.17;44.47;98208.75;7374844;19;19918;-70
2023/06/26 07:15:38;;;;;;;;;;;;;;;26.20;42.39;98205.53;7371676;19;19922;-69
2023/06/26 07:18:04;;;;;;;;;;;;;;;26.29;43.08;98212.09;7377972;19;19987;-69
2023/06/26 07:20:31;;;;;;;;;;;;;;;26.41;41.98;98207.28;7376025;19;19930;-69
2023/06/26 07:22:58;;;;;;;;;;;;;;;26.49;42.31;98203.28;7372012;19;19930;-69
2023/06/26 07:25:24;;;;;;;;;;;;;;;26.59;41.40;98206.03;7374214;19;19923;-69
2023/06/26 07:27:51;;;;;;;;;;;;;;;26.62;40.73;98207.41;7371046;19;20272;-69
2023/06/26 07:30:18;;;;;;;;;;;;;;;26.78;41.74;98213.72;7374402;19;19929;-69
2023/06/26 07:32:44;;;;;;;;;;;;;;;26.86;42.62;98207.81;7371278;19;19955;-69
2023/06/26 07:35:12;;;;;;;;;;;;;;;26.82;42.27;98212.13;7367325;19;19919;-69
2023/06/26 07:37:38;;;;;;;;;;;;;;;26.91;41.89;98202.41;7375367;19;20360;-68
2023/06/26 07:40:06;;;;;;;;;;;;;;;26.95;43.01;98206.19;7377777;19;19934;-69
2023/06/26 07:42:32;;;;;;;;;;;;;;;27.15;41.13;98206.28;7374191;19;19922;-69
2023/06/26 07:44:59;;;;;;;;;;;;;;;27.24;42.15;98214.72;7367616;19;19927;-68
2023/06/26 07:47:26;;;;;;;;;;;;;;;27.38;40.50;98214.22;7368886;19;21490;-69
2023/06/26 07:49:53;;;;;;;;;;;;;;;27.46;39.76;98217.25;7369682;19;19929;-68
2023/06/26 07:52:19;;;;;;;;;;;;;;;27.63;39.84;98213.44;7376871;19;20894;-69
2023/06/26 07:54:46;;;;;;;;;;;;;;;27.72;40.33;98214.53;7367742;19;20873;-70
2023/06/26 07:57:13;;;;;;;;;;;;;;;27.74;37.78;98207.72;7372288;19;19982;-68
2023/06/26 07:59:39;;;;;;;;;;;;;;;28.06;38.31;98203.13;7372033;19;19968;-68
2023/06/26 08:02:06;;;;;;;;;;;;;;;28.25;39.15;98212.34;7368549;19;19956;-69
2023/06/26 08:04:33;;;;;;;;;;;;;;;28.44;37.95;98199.03;7376141;19;20352;-68
2023/06/26 08:07:00;;;;;;;;;;;;;;;28.60;36.75;98205.22;7371864;19;19986;-69
2023/06/26 08:09:28;;;;;;;;;;;;;;;28.74;36.74;98208.97;7373995;19;20455;-69
2023/06/26 08:11:55;;;;;;;;;;;;;;;28.85;36.41;98201.59;7365066;19;20371;-69
2023/06/26 08:14:21;;;;;;;;;;;;;;;28.78;36.81;98199.19;7372813;19;20656;-69
2023/06/26 08:16:48;;;;;;;;;;;;;;;28.86;36.32;98203.22;7368863;19;19957;-70
2023/06/26 08:19:15;;;;;;;;;;;;;;;28.80;35.85;98194.25;7375976;19;19926;-69
2023/06/26 08:21:42;;;;;;;;;;;;;;;28.93;36.33;98200.19;7374659;19;19918;-70
2023/06/26 08:24:09;;;;;;;;;;;;;;;28.91;34.87;98194.19;7369613;19;19919;-68
2023/06/26 08:26:35;;;;;;;;;;;;;;;29.08;34.76;98186.53;7369679;19;19927;-67
2023/06/26 08:29:07;;;;;;;;;;;;;;;29.30;35.25;98183.38;7368602;19;20341;-68
2023/06/26 08:31:38;;;;;;;;;;;;;;;29.09;36.27;98182.69;7375035;19;20337;-69
2023/06/26 08:34:05;;;;;;;;;;;;;;;29.30;35.43;98183.38;7371488;19;19915;-70
2023/06/26 08:36:31;;;;;;;;;;;;;;;29.09;35.39;98185.44;7377465;19;19962;-68
2023/06/26 08:38:58;;;;;;;;;;;;;;;29.41;36.00;98184.97;7371289;19;19923;-69
2023/06/26 08:41:25;;;;;;;;;;;;;;;29.45;35.67;98177.03;7373933;19;19923;-70
2023/06/26 08:43:52;;;;;;;;;;;;;;;29.25;35.76;98177.97;7366813;19;19911;-70
2023/06/26 08:46:19;;;;;;;;;;;;;;;29.53;35.69;98179.16;7375855;19;20470;-70
2023/06/26 08:48:51;;;;;;;;;;;;;;;29.62;33.68;98180.19;7371496;19;19923;-69
2023/06/26 08:51:24;;;;;;;;;;;;;;;29.88;33.83;98183.50;7368879;19;20203;-69
2023/06/26 08:54:01;;;;;;;;;;;;;;;30.04;33.69;98186.91;7368195;19;19919;-69
2023/06/26 08:56:28;;;;;;;;;;;;;;;30.17;34.34;98180.78;7371184;19;20573;-70
2023/06/26 08:58:55;;;;;;;;;;;;;;;30.39;32.75;98183.06;7367123;19;19927;-70
2023/06/26 09:01:23;;;;;;;;;;;;;;;30.56;33.48;98182.56;7368617;19;19918;-69
2023/06/26 09:03:50;;;;;;;;;;;;;;;30.41;31.92;98180.03;7363956;19;19996;-70
2023/06/26 09:06:18;;;;;;;;;;;;;;;30.55;32.54;98177.44;7373934;19;19938;-68
2023/06/26 09:08:45;;;;;;;;;;;;;;;30.70;32.81;98176.41;7374124;19;19923;-69
2023/06/26 09:11:11;;;;;;;;;;;;;;;30.88;31.86;98185.78;7373476;19;19931;-69
2023/06/26 09:13:38;;;;;;;;;;;;;;;30.88;31.96;98180.31;7375474;19;19929;-70
2023/06/26 09:16:08;;;;;;;;;;;;;;;31.00;31.60;98181.50;7364077;19;19931;-70
2023/06/26 09:18:35;;;;;;;;;;;;;;;31.26;31.95;98178.44;7367361;19;19926;-71
2023/06/26 09:21:08;;;;;;;;;;;;;;;31.41;31.03;98183.72;7366614;19;19923;-70
2023/06/26 09:23:38;;;;;;;;;;;;;;;31.36;31.43;98185.66;7371600;19;19933;-72
2023/06/26 09:26:05;;;;;;;;;;;;;;;31.50;32.36;98178.38;7365681;19;19922;-69
2023/06/26 09:28:33;;;;;;;;;;;;;;;31.66;30.99;98174.28;7371397;19;19926;-70
2023/06/26 09:31:03;;;;;;;;;;;;;;;31.81;30.62;98177.84;7368927;19;19923;-69
2023/06/26 09:33:37;;;;;;;;;;;;;;;31.82;31.33;98180.31;7374797;19;19919;-70
2023/06/26 09:36:07;;;;;;;;;;;;;;;31.63;31.85;98176.81;7363397;19;19918;-70
2023/06/26 09:38:35;;;;;;;;;;;;;;;31.42;32.04;98179.03;7372189;19;19918;-71
2023/06/26 09:41:02;;;;;;;;;;;;;;;31.06;32.86;98180.31;7364713;19;19927;-70
2023/06/26 09:43:28;;;;;;;;;;;;;;;31.20;32.08;98174.13;7372125;19;19918;-69
2023/06/26 09:45:55;;;;;;;;;;;;;;;31.35;33.00;98175.84;7364755;19;20340;-70
2023/06/26 09:48:22;;;;;;;;;;;;;;;31.11;32.69;98175.91;7368116;19;19926;-71
2023/06/26 09:50:49;;;;;;;;;;;;;;;30.71;33.10;98167.13;7364484;19;19921;-69
2023/06/26 09:53:36;;;;;;;;;;;;;;;30.67;33.19;98169.63;7370254;19;19982;-71
2023/06/26 09:56:06;;;;;;;;;;;;;;;30.69;34.05;98166.59;7364586;19;19918;-69
2023/06/26 09:58:33;;;;;;;;;;;;;;;30.97;32.18;98162.19;7374553;19;19930;-70
2023/06/26 10:01:00;;;;;;;;;;;;;;;30.97;32.17;98171.19;7368904;19;19923;-70
2023/06/26 10:03:27;;;;;;;;;;;;;;;31.08;32.37;98151.91;7371126;19;19923;-70
2023/06/26 10:05:54;;;;;;;;;;;;;;;30.87;33.25;98160.38;7365996;19;20270;-70
2023/06/26 10:08:21;;;;;;;;;;;;;;;31.18;31.96;98152.56;7367845;19;19925;-70
2023/06/26 10:10:47;;;;;;;;;;;;;;;31.30;32.82;98157.59;7367387;19;19919;-69
2023/06/26 10:13:20;;;;;;;;;;;;;;;31.38;33.37;98161.59;7366714;19;19927;-69
2023/06/26 10:15:46;;;;;;;;;;;;;;;31.56;32.67;98159.97;7368994;19;19939;-70
2023/06/26 10:18:13;;;;;;;;;;;;;;;31.77;32.33;98154.97;7366112;19;19926;-71
2023/06/26 10:20:40;;;;;;;;;;;;;;;31.73;32.49;98160.22;7371535;19;19929;-70
2023/06/26 10:23:07;;;;;;;;;;;;;;;31.61;32.58;98160.69;7364832;19;20260;-70
2023/06/26 10:25:34;;;;;;;;;;;;;;;31.35;32.64;98170.38;7364084;19;19970;-72
2023/06/26 10:28:01;;;;;;;;;;;;;;;31.38;33.30;98170.59;7366261;19;19914;-75
2023/06/26 10:30:28;;;;;;;;;;;;;;;31.19;34.03;98173.31;7368556;19;19978;-74
2023/06/26 10:32:56;;;;;;;;;;;;;;;31.27;33.84;98166.38;7364717;19;20391;-70
2023/06/26 10:35:24;;;;;;;;;;;;;;;31.16;33.71;98173.13;7366092;19;19931;-71
2023/06/26 10:37:50;;;;;;;;;;;;;;;31.28;33.06;98177.03;7367544;19;19922;-69
2023/06/26 10:40:27;;;;;;;;;;;;;;;30.96;33.93;98179.66;7367072;19;19919;-69
2023/06/26 10:43:09;;;;;;;;;;;;;;;31.32;33.62;98177.25;7360229;19;19918;-72
2023/06/26 10:45:36;;;;;;;;;;;;;;;31.34;32.75;98185.16;7364584;19;19918;-74
2023/06/26 10:48:06;;;;;;;;;;;;;;;31.08;34.02;98188.25;7366142;19;19919;-71
2023/06/26 10:50:37;;;;;;;;;;;;;;;31.01;34.26;98194.06;7368857;19;19919;-71
2023/06/26 10:53:08;;;;;;;;;;;;;;;30.75;34.22;98184.53;7364099;19;19926;-70
2023/06/26 10:55:35;;;;;;;;;;;;;;;30.58;34.53;98190.50;7366793;19;19926;-74
2023/06/26 10:58:05;;;;;;;;;;;;;;;30.45;34.02;98183.81;7362926;19;19919;-71
2023/06/26 11:00:32;;;;;;;;;;;;;;;30.61;35.14;98178.97;7365794;19;19915;-71
2023/06/26 11:03:00;;;;;;;;;;;;;;;30.40;34.63;98181.94;7362726;19;19947;-71
2023/06/26 11:05:28;;;;;;;;;;;;;;;30.74;34.46;98178.28;7366218;19;19923;-70
2023/06/26 11:08:03;;;;;;;;;;;;;;;30.71;33.97;98176.13;7368269;19;19946;-71
2023/06/26 11:10:42;;;;;;;;;;;;;;;30.65;35.65;98180.03;7371466;19;19925;-72
2023/06/26 11:13:09;;;;;;;;;;;;;;;30.60;35.73;98180.09;7365740;19;19910;-72
2023/06/26 11:15:36;;;;;;;;;;;;;;;30.55;36.11;98174.69;7364254;19;19960;-70
2023/06/26 11:18:03;;;;;;;;;;;;;;;30.42;36.10;98181.66;7361565;19;19919;-72
2023/06/26 11:20:30;;;;;;;;;;;;;;;30.53;35.64;98185.88;7370173;19;19930;-73
2023/06/26 11:22:58;;;;;;;;;;;;;;;30.11;36.13;98181.94;7365971;19;19930;-73
2023/06/26 11:25:25;;;;;;;;;;;;;;;30.61;36.87;98177.06;7366682;19;19919;-73
2023/06/26 11:27:53;;;;;;;;;;;;;;;30.94;36.11;98195.53;7366418;19;19930;-69
2023/06/26 11:30:23;;;;;;;;;;;;;;;31.13;35.91;98195.56;7368554;19;22782;-73
2023/06/26 11:32:50;;;;;;;;;;;;;;;30.61;36.20;98187.16;7367297;19;19947;-72
2023/06/26 11:35:30;;;;;;;;;;;;;;;30.27;36.70;98196.28;7360761;19;20085;-72
2023/06/26 11:37:59;;;;;;;;;;;;;;;30.53;37.13;98185.88;7368362;19;20700;-71
2023/06/26 11:40:31;;;;;;;;;;;;;;;30.49;37.36;98198.50;7370995;19;20288;-73
2023/06/26 11:42:58;;;;;;;;;;;;;;;30.52;37.39;98202.59;7362618;19;19919;-72
2023/06/26 11:45:27;;;;;;;;;;;;;;;30.50;36.67;98211.06;7363766;19;19919;-74
2023/06/26 11:47:54;;;;;;;;;;;;;;;30.43;36.94;98207.84;7369859;19;19974;-71
2023/06/26 11:50:21;;;;;;;;;;;;;;;30.62;36.89;98203.28;7375417;19;19919;-71
2023/06/26 11:52:55;;;;;;;;;;;;;;;30.48;37.16;98213.25;7372366;19;19930;-70
2023/06/26 11:55:23;;;;;;;;;;;;;;;30.37;37.05;98218.00;7372414;19;19952;-74
2023/06/26 11:57:50;;;;;;;;;;;;;;;30.35;37.71;98220.19;7377492;19;20001;-70
2023/06/26 12:00:18;;;;;;;;;;;;;;;30.45;37.54;98211.09;7372864;19;19926;-71
2023/06/26 12:02:46;;;;;;;;;;;;;;;30.25;38.19;98214.03;7374231;19;20501;-72
2023/06/26 12:05:13;;;;;;;;;;;;;;;30.34;38.96;98220.50;7366587;19;20525;-71
2023/06/26 12:07:41;;;;;;;;;;;;;;;30.11;38.71;98222.88;7377176;19;19943;-71
2023/06/26 12:10:09;;;;;;;;;;;;;;;30.35;38.90;98227.59;7370883;19;19930;-69
2023/06/26 12:12:36;;;;;;;;;;;;;;;30.23;39.40;98232.56;7376164;19;20006;-73
2023/06/26 12:15:02;;;;;;;;;;;;;;;29.69;39.64;98229.75;7372278;19;19929;-73
2023/06/26 12:17:30;;;;;;;;;;;;;;;29.70;40.02;98228.69;7379387;19;19922;-69
2023/06/26 12:19:56;;;;;;;;;;;;;;;30.06;39.45;98217.44;7375698;19;19926;-72
2023/06/26 12:22:23;;;;;;;;;;;;;;;30.22;38.96;98225.50;7373605;19;22259;-74
2023/06/26 12:24:50;;;;;;;;;;;;;;;30.10;38.95;98221.25;7374165;19;20353;-73
2023/06/26 12:27:18;;;;;;;;;;;;;;;29.90;39.33;98221.41;7372432;19;19921;-69
2023/06/26 12:29:52;;;;;;;;;;;;;;;30.07;39.10;98227.28;7375605;19;19919;-71
2023/06/26 12:32:18;;;;;;;;;;;;;;;30.32;38.88;98228.16;7369131;19;19925;-70
2023/06/26 12:34:49;;;;;;;;;;;;;;;30.44;38.79;98220.41;7374196;19;19926;-69
2023/06/26 12:37:16;;;;;;;;;;;;;;;30.59;38.41;98220.22;7368806;19;19918;-70
2023/06/26 12:39:49;;;;;;;;;;;;;;;30.58;38.59;98225.97;7370694;19;20272;-71
2023/06/26 12:42:19;;;;;;;;;;;;;;;30.47;38.85;98225.28;7369950;19;19922;-70
2023/06/26 12:44:46;;;;;;;;;;;;;;;30.49;38.68;98225.81;7373988;19;19955;-71
2023/06/26 12:47:17;;;;;;;;;;;;;;;30.40;38.51;98217.41;7370761;19;20312;-70
2023/06/26 12:49:44;;;;;;;;;;;;;;;30.63;37.65;98215.00;7374517;19;19926;-69